Time;durP1;ratioP1;P1;durP2;ratioP2;P2;SDS_P1;SDS_P2;PMS_P1;PMS_P2;Temp;Humidity;BMP_temperature;BMP_pressure;BME280_temperature;BME280_humidity;BME280_pressure;Samples;Min_cycle;Max_cycle;Signal;HPM_P1;HPM_P2
2021/03/05 00:02:16;;;;;;;12.80;3.75;;;;;;;;;;5001858;28;20045;-68
2021/03/05 00:04:42;;;;;;;13.77;3.50;;;;;;;;;;4996860;28;20355;-68
2021/03/05 00:07:07;;;;;;;9.10;2.63;;;;;;;;;;4997241;28;20038;-67
2021/03/05 00:09:32;;;;;;;12.13;3.30;;;;;;;;;;5005191;28;20042;-68
2021/03/05 00:11:57;;;;;;;9.27;3.22;;;;;;;;;;4995996;28;20061;-67
2021/03/05 00:14:23;;;;;;;19.35;3.33;;;;;;;;;;4995534;28;20062;-67
2021/03/05 00:16:48;;;;;;;10.15;2.28;;;;;;;;;;4996248;28;20046;-67
2021/03/05 00:19:13;;;;;;;10.38;3.05;;;;;;;;;;4996548;28;20023;-67
2021/03/05 00:21:38;;;;;;;7.32;2.38;;;;;;;;;;4996668;28;20030;-67
2021/03/05 00:24:04;;;;;;;14.13;3.10;;;;;;;;;;4996828;28;20042;-67
2021/03/05 00:26:29;;;;;;;9.77;2.58;;;;;;;;;;4995351;28;20014;-67
2021/03/05 00:28:54;;;;;;;12.93;3.05;;;;;;;;;;4996700;28;20439;-68
2021/03/05 00:31:19;;;;;;;18.73;3.25;;;;;;;;;;4996467;28;20401;-68
2021/03/05 00:33:45;;;;;;;12.23;2.85;;;;;;;;;;4996648;28;20108;-68
2021/03/05 00:36:10;;;;;;;15.27;2.47;;;;;;;;;;5004941;28;20037;-67
2021/03/05 00:38:35;;;;;;;9.88;2.83;;;;;;;;;;5007498;28;20073;-67
2021/03/05 00:41:01;;;;;;;16.38;2.60;;;;;;;;;;5005268;28;20018;-67
2021/03/05 00:43:26;;;;;;;21.15;2.72;;;;;;;;;;5011906;28;20041;-68
2021/03/05 00:45:51;;;;;;;11.77;2.33;;;;;;;;;;5004087;28;20126;-67
2021/03/05 00:48:17;;;;;;;8.20;2.35;;;;;;;;;;5011850;28;20044;-67
2021/03/05 00:50:42;;;;;;;9.00;2.00;;;;;;;;;;4990204;28;20399;-67
2021/03/05 00:53:07;;;;;;;9.18;2.42;;;;;;;;;;4996103;28;20073;-67
2021/03/05 00:55:32;;;;;;;8.63;1.67;;;;;;;;;;5005154;28;20494;-67
2021/03/05 00:57:58;;;;;;;12.55;2.17;;;;;;;;;;5007095;28;20128;-67
2021/03/05 01:00:23;;;;;;;11.32;2.17;;;;;;;;;;5015863;28;20143;-67
2021/03/05 01:02:48;;;;;;;9.82;2.25;;;;;;;;;;5012440;28;20022;-67
2021/03/05 01:05:14;;;;;;;10.65;2.75;;;;;;;;;;4997455;28;20081;-67
2021/03/05 01:07:39;;;;;;;15.13;2.47;;;;;;;;;;4999205;28;20045;-68
2021/03/05 01:10:06;;;;;;;15.75;2.50;;;;;;;;;;4995788;28;20427;-67
2021/03/05 01:12:32;;;;;;;9.27;2.13;;;;;;;;;;4995710;28;20061;-67
2021/03/05 01:14:57;;;;;;;9.80;1.80;;;;;;;;;;4995098;28;20039;-67
2021/03/05 01:17:23;;;;;;;8.20;2.88;;;;;;;;;;4995516;28;20045;-67
2021/03/05 01:19:48;;;;;;;12.38;1.70;;;;;;;;;;4995639;28;20085;-67
2021/03/05 01:22:13;;;;;;;14.23;2.50;;;;;;;;;;4995418;28;20100;-67
2021/03/05 01:24:39;;;;;;;21.48;3.22;;;;;;;;;;4995903;28;20017;-67
2021/03/05 01:27:04;;;;;;;9.63;2.17;;;;;;;;;;4995217;28;20038;-67
2021/03/05 01:29:29;;;;;;;7.85;2.45;;;;;;;;;;4994241;28;20026;-67
2021/03/05 01:31:54;;;;;;;15.50;2.75;;;;;;;;;;4994654;28;20027;-67
2021/03/05 01:34:20;;;;;;;9.45;2.00;;;;;;;;;;4990813;28;20045;-67
2021/03/05 01:36:45;;;;;;;28.38;6.85;;;;;;;;;;4994820;28;20046;-67
2021/03/05 01:39:11;;;;;;;15.40;2.88;;;;;;;;;;4995182;28;20015;-67
2021/03/05 01:41:37;;;;;;;7.68;1.77;;;;;;;;;;4996737;28;20034;-67
2021/03/05 01:44:04;;;;;;;15.98;2.42;;;;;;;;;;4994730;28;20141;-67
2021/03/05 01:46:29;;;;;;;12.13;2.22;;;;;;;;;;4994474;28;20027;-67
2021/03/05 01:48:55;;;;;;;12.57;2.63;;;;;;;;;;4994340;28;20022;-67
2021/03/05 01:51:23;;;;;;;14.80;3.70;;;;;;;;;;4994599;28;20117;-67
2021/03/05 01:53:48;;;;;;;12.20;2.42;;;;;;;;;;4994848;28;20030;-67
2021/03/05 01:56:34;;;;;;;15.57;2.13;;;;;;;;;;4994921;28;20034;-67
2021/03/05 01:58:59;;;;;;;10.07;2.95;;;;;;;;;;4994656;28;20038;-67
2021/03/05 02:01:26;;;;;;;8.55;2.35;;;;;;;;;;4994810;28;20030;-67
2021/03/05 02:03:51;;;;;;;13.02;3.17;;;;;;;;;;4994628;28;20467;-67
2021/03/05 02:06:16;;;;;;;13.73;2.70;;;;;;;;;;4994834;28;20029;-67
2021/03/05 02:08:42;;;;;;;8.95;2.10;;;;;;;;;;4994679;28;20037;-67
2021/03/05 02:11:08;;;;;;;14.85;2.72;;;;;;;;;;4994656;28;20034;-67
2021/03/05 02:13:33;;;;;;;8.20;2.28;;;;;;;;;;4986802;28;20015;-67
2021/03/05 02:16:01;;;;;;;10.07;2.45;;;;;;;;;;4993292;28;20105;-67
2021/03/05 02:18:29;;;;;;;19.05;2.85;;;;;;;;;;4993526;28;20531;-67
2021/03/05 02:20:54;;;;;;;9.65;2.22;;;;;;;;;;4994456;28;20038;-67
2021/03/05 02:23:19;;;;;;;15.02;3.28;;;;;;;;;;4994201;28;20128;-67
2021/03/05 02:25:47;;;;;;;13.43;2.20;;;;;;;;;;4994380;28;20086;-68
2021/03/05 02:28:13;;;;;;;14.60;2.30;;;;;;;;;;4994331;28;20022;-67
2021/03/05 02:30:56;;;;;;;17.30;3.92;;;;;;;;;;4994422;28;20076;-67
2021/03/05 02:33:33;;;;;;;5.60;2.30;;;;;;;;;;4994158;28;20460;-67
2021/03/05 02:35:59;;;;;;;9.05;3.08;;;;;;;;;;4994198;28;20109;-67
2021/03/05 02:38:25;;;;;;;13.60;2.97;;;;;;;;;;4994155;28;20085;-67
2021/03/05 02:40:51;;;;;;;10.80;2.03;;;;;;;;;;4994224;28;20440;-67
2021/03/05 02:43:18;;;;;;;8.38;2.22;;;;;;;;;;5009683;28;20028;-67
2021/03/05 02:45:45;;;;;;;14.30;2.85;;;;;;;;;;5013391;28;20067;-67
2021/03/05 02:48:16;;;;;;;13.25;2.30;;;;;;;;;;5013609;28;20030;-67
2021/03/05 02:50:44;;;;;;;13.55;2.47;;;;;;;;;;5013700;28;20057;-67
2021/03/05 02:53:11;;;;;;;8.52;2.20;;;;;;;;;;5013483;28;20038;-67
2021/03/05 02:55:37;;;;;;;13.30;2.53;;;;;;;;;;5013693;28;20064;-67
2021/03/05 02:58:03;;;;;;;6.90;2.35;;;;;;;;;;5013373;28;20137;-67
2021/03/05 03:00:29;;;;;;;9.85;2.05;;;;;;;;;;5013572;28;20058;-67
2021/03/05 03:02:55;;;;;;;12.80;2.83;;;;;;;;;;5013405;28;20068;-67
2021/03/05 03:05:20;;;;;;;19.17;2.40;;;;;;;;;;5013526;28;20029;-67
2021/03/05 03:07:46;;;;;;;17.80;3.22;;;;;;;;;;5013440;28;20547;-67
2021/03/05 03:10:11;;;;;;;10.18;2.20;;;;;;;;;;5012681;28;20105;-67
2021/03/05 03:12:37;;;;;;;10.80;1.90;;;;;;;;;;5013061;28;20021;-67
2021/03/05 03:15:04;;;;;;;11.80;2.70;;;;;;;;;;5013468;28;20504;-66
2021/03/05 03:17:29;;;;;;;11.65;2.05;;;;;;;;;;5013198;28;20025;-67
2021/03/05 03:19:55;;;;;;;10.05;2.53;;;;;;;;;;5013032;28;20091;-67
2021/03/05 03:22:21;;;;;;;15.95;2.90;;;;;;;;;;5013191;28;20057;-67
2021/03/05 03:24:47;;;;;;;10.02;2.42;;;;;;;;;;5013324;28;20064;-67
2021/03/05 03:27:12;;;;;;;11.18;1.83;;;;;;;;;;5013187;28;20033;-67
2021/03/05 03:29:37;;;;;;;13.23;2.05;;;;;;;;;;5013080;28;20046;-67
2021/03/05 03:32:03;;;;;;;12.50;2.63;;;;;;;;;;5013131;28;20022;-67
2021/03/05 03:34:29;;;;;;;11.85;1.83;;;;;;;;;;5012949;28;20390;-67
2021/03/05 03:36:55;;;;;;;14.40;2.28;;;;;;;;;;5013041;28;20042;-67
2021/03/05 03:39:22;;;;;;;8.73;2.38;;;;;;;;;;5013240;28;20101;-67
2021/03/05 03:41:48;;;;;;;21.67;2.58;;;;;;;;;;5008906;28;20041;-67
2021/03/05 03:44:13;;;;;;;10.90;3.20;;;;;;;;;;4993414;28;20055;-67
2021/03/05 03:46:48;;;;;;;13.05;2.45;;;;;;;;;;4993463;28;20025;-67
2021/03/05 03:49:24;;;;;;;13.83;2.70;;;;;;;;;;4993564;28;20031;-67
2021/03/05 03:51:56;;;;;;;9.45;2.47;;;;;;;;;;4992155;28;20438;-67
2021/03/05 03:54:21;;;;;;;7.88;2.10;;;;;;;;;;4993495;28;20022;-67
2021/03/05 03:56:49;;;;;;;12.05;3.28;;;;;;;;;;4993339;28;20438;-67
2021/03/05 03:59:15;;;;;;;11.10;2.22;;;;;;;;;;4993396;28;20084;-67
2021/03/05 04:01:45;;;;;;;12.55;2.53;;;;;;;;;;4992602;28;20038;-68
2021/03/05 04:04:11;;;;;;;16.50;2.22;;;;;;;;;;4993226;28;20382;-67
2021/03/05 04:06:37;;;;;;;14.63;2.33;;;;;;;;;;4993028;28;20021;-67
2021/03/05 04:09:02;;;;;;;14.68;1.85;;;;;;;;;;4993327;28;20463;-67
2021/03/05 04:11:28;;;;;;;8.80;2.13;;;;;;;;;;4993161;28;20037;-67
2021/03/05 04:13:53;;;;;;;13.60;2.20;;;;;;;;;;4993551;28;20026;-67
2021/03/05 04:16:19;;;;;;;9.38;2.10;;;;;;;;;;4993260;28;20042;-67
2021/03/05 04:18:44;;;;;;;7.45;1.58;;;;;;;;;;4992069;28;20073;-67
2021/03/05 04:21:12;;;;;;;15.88;2.97;;;;;;;;;;4994768;28;20030;-67
2021/03/05 04:23:38;;;;;;;11.90;1.85;;;;;;;;;;4996709;28;20026;-67
2021/03/05 04:26:03;;;;;;;13.60;1.90;;;;;;;;;;4996647;28;20387;-67
2021/03/05 04:28:29;;;;;;;9.90;1.83;;;;;;;;;;4996880;28;20104;-67
2021/03/05 04:30:54;;;;;;;12.05;2.60;;;;;;;;;;4996606;28;20093;-67
2021/03/05 04:33:19;;;;;;;7.93;1.70;;;;;;;;;;4996494;28;20543;-67
2021/03/05 04:35:45;;;;;;;13.32;2.47;;;;;;;;;;4996519;28;20034;-68
2021/03/05 04:38:10;;;;;;;11.10;2.78;;;;;;;;;;4996285;28;20046;-67
2021/03/05 04:40:35;;;;;;;15.45;2.40;;;;;;;;;;4996479;28;20464;-67
2021/03/05 04:43:00;;;;;;;6.50;1.80;;;;;;;;;;5009829;28;20495;-67
2021/03/05 04:45:25;;;;;;;7.95;1.95;;;;;;;;;;5015894;28;20050;-67
2021/03/05 04:47:51;;;;;;;10.00;1.95;;;;;;;;;;5015840;28;20037;-67
2021/03/05 04:50:16;;;;;;;8.38;2.50;;;;;;;;;;5015574;28;20018;-67
2021/03/05 04:52:41;;;;;;;8.77;2.13;;;;;;;;;;5015735;28;20489;-67
2021/03/05 04:55:07;;;;;;;8.27;1.85;;;;;;;;;;5015714;28;20033;-67
2021/03/05 04:57:32;;;;;;;11.48;2.30;;;;;;;;;;5015299;28;20034;-67
2021/03/05 04:59:57;;;;;;;12.70;2.05;;;;;;;;;;5015691;28;20030;-67
2021/03/05 05:02:22;;;;;;;14.48;2.42;;;;;;;;;;5015271;28;20391;-67
2021/03/05 05:04:48;;;;;;;10.90;2.63;;;;;;;;;;5015590;28;20061;-67
2021/03/05 05:07:13;;;;;;;7.18;1.73;;;;;;;;;;5015450;28;20049;-67
2021/03/05 05:09:38;;;;;;;9.18;2.25;;;;;;;;;;5015251;28;20161;-67
2021/03/05 05:12:04;;;;;;;6.40;1.90;;;;;;;;;;5015608;28;20017;-66
2021/03/05 05:14:29;;;;;;;6.47;1.60;;;;;;;;;;5010505;28;20077;-68
2021/03/05 05:16:54;;;;;;;10.73;2.58;;;;;;;;;;4987406;28;20042;-67
2021/03/05 05:19:19;;;;;;;4.75;1.40;;;;;;;;;;4994940;28;20470;-67
2021/03/05 05:21:45;;;;;;;12.60;3.50;;;;;;;;;;4994888;28;20380;-67
2021/03/05 05:24:10;;;;;;;15.23;2.13;;;;;;;;;;4995594;28;20057;-67
2021/03/05 05:26:35;;;;;;;3.88;1.63;;;;;;;;;;4995524;28;20022;-67
2021/03/05 05:29:01;;;;;;;4.20;1.67;;;;;;;;;;4995601;28;20035;-67
2021/03/05 05:31:26;;;;;;;14.27;2.25;;;;;;;;;;4994233;28;20034;-67
2021/03/05 05:33:51;;;;;;;10.10;1.38;;;;;;;;;;4994627;28;20014;-67
2021/03/05 05:36:16;;;;;;;3.20;1.35;;;;;;;;;;4995335;28;20475;-67
2021/03/05 05:38:42;;;;;;;10.15;1.30;;;;;;;;;;4995345;28;20045;-67
2021/03/05 05:41:07;;;;;;;11.90;1.42;;;;;;;;;;4995081;28;20016;-67
2021/03/05 05:43:32;;;;;;;7.43;1.55;;;;;;;;;;4994950;28;20117;-67
2021/03/05 05:46:08;;;;;;;17.48;1.25;;;;;;;;;;4995262;28;20040;-67
2021/03/05 05:48:36;;;;;;;6.00;1.38;;;;;;;;;;4995160;28;20030;-67
2021/03/05 05:51:02;;;;;;;8.25;1.77;;;;;;;;;;4995095;28;20101;-67
2021/03/05 05:53:32;;;;;;;8.75;1.25;;;;;;;;;;4995046;28;20157;-67
2021/03/05 05:55:59;;;;;;;9.63;1.08;;;;;;;;;;4995082;28;20033;-67
2021/03/05 05:58:25;;;;;;;6.00;1.67;;;;;;;;;;4994818;28;20038;-67
2021/03/05 06:00:50;;;;;;;11.55;1.42;;;;;;;;;;4995016;28;20034;-67
2021/03/05 06:03:16;;;;;;;9.02;1.10;;;;;;;;;;4994791;28;20093;-67
2021/03/05 06:05:41;;;;;;;8.30;1.20;;;;;;;;;;4994891;28;20030;-67
2021/03/05 06:08:07;;;;;;;6.95;1.02;;;;;;;;;;4994725;28;20383;-67
2021/03/05 06:10:32;;;;;;;4.40;0.73;;;;;;;;;;4994490;28;20058;-67
2021/03/05 06:12:57;;;;;;;10.25;1.55;;;;;;;;;;4994663;28;20053;-67
2021/03/05 06:15:27;;;;;;;2.60;0.80;;;;;;;;;;4994676;28;20068;-68
2021/03/05 06:17:53;;;;;;;6.40;1.17;;;;;;;;;;4994392;28;20107;-67
2021/03/05 06:20:18;;;;;;;2.92;1.30;;;;;;;;;;4994644;28;20467;-67
2021/03/05 06:22:43;;;;;;;11.23;1.73;;;;;;;;;;4994409;28;20015;-67
2021/03/05 06:25:10;;;;;;;3.60;1.02;;;;;;;;;;4994207;28;20045;-67
2021/03/05 06:27:36;;;;;;;3.72;0.77;;;;;;;;;;4994397;28;20407;-67
2021/03/05 06:30:02;;;;;;;5.40;1.13;;;;;;;;;;4994486;28;20104;-67
2021/03/05 06:32:38;;;;;;;12.77;1.30;;;;;;;;;;4994320;28;20495;-67
2021/03/05 06:35:03;;;;;;;;;;;;;;;;;;4994798;28;20034;-67
2021/03/05 06:37:39;;;;;;;5.53;1.17;;;;;;;;;;4994122;28;19921;-67
2021/03/05 06:40:09;;;;;;;8.13;1.33;;;;;;;;;;4994249;28;20280;-67
2021/03/05 06:42:51;;;;;;;6.05;1.00;;;;;;;;;;5002809;28;20030;-67
2021/03/05 06:45:18;;;;;;;10.95;1.60;;;;;;;;;;5013844;28;20497;-67
2021/03/05 06:47:58;;;;;;;8.23;1.30;;;;;;;;;;5013664;28;20030;-67
2021/03/05 06:50:23;;;;;;;6.35;1.00;;;;;;;;;;5013752;28;20033;-67
2021/03/05 06:52:49;;;;;;;13.63;1.23;;;;;;;;;;5013838;28;20030;-68
2021/03/05 06:55:14;;;;;;;8.10;1.45;;;;;;;;;;5013622;28;20095;-67
2021/03/05 06:57:39;;;;;;;7.45;0.90;;;;;;;;;;5001837;28;20038;-67
2021/03/05 07:00:14;;;;;;;4.28;0.90;;;;;;;;;;4981763;28;20119;-67
2021/03/05 07:02:40;;;;;;;9.95;1.02;;;;;;;;;;4992032;28;20063;-67
2021/03/05 07:05:05;;;;;;;6.07;0.90;;;;;;;;;;4993728;28;20058;-67
2021/03/05 07:07:40;;;;;;;10.45;1.30;;;;;;;;;;4993805;28;20046;-67
2021/03/05 07:10:06;;;;;;;5.05;0.93;;;;;;;;;;4993801;28;20109;-67
2021/03/05 07:12:31;;;;;;;16.05;1.73;;;;;;;;;;4993715;28;20069;-67
2021/03/05 07:14:59;;;;;;;10.43;1.15;;;;;;;;;;4993786;28;20034;-67
2021/03/05 07:17:24;;;;;;;8.90;1.10;;;;;;;;;;4993533;28;20054;-67
2021/03/05 07:19:50;;;;;;;8.02;1.17;;;;;;;;;;4992175;28;20133;-67
2021/03/05 07:22:17;;;;;;;10.77;1.13;;;;;;;;;;4993503;28;20026;-68
2021/03/05 07:24:42;;;;;;;6.95;0.90;;;;;;;;;;4993734;28;20026;-68
2021/03/05 07:27:08;;;;;;;6.38;1.25;;;;;;;;;;4993462;28;20061;-67
2021/03/05 07:29:38;;;;;;;9.88;1.35;;;;;;;;;;4993418;28;20102;-67
2021/03/05 07:32:03;;;;;;;13.55;1.20;;;;;;;;;;4993554;28;20027;-67
2021/03/05 07:34:30;;;;;;;6.35;1.05;;;;;;;;;;4993675;28;20113;-67
2021/03/05 07:36:57;;;;;;;9.50;1.20;;;;;;;;;;4993508;28;20026;-67
2021/03/05 07:39:27;;;;;;;8.70;1.10;;;;;;;;;;4987201;28;20097;-67
2021/03/05 07:41:53;;;;;;;8.98;1.23;;;;;;;;;;4989077;28;20034;-67
2021/03/05 07:44:18;;;;;;;8.77;1.00;;;;;;;;;;4985853;28;20046;-67
2021/03/05 07:46:44;;;;;;;8.98;1.40;;;;;;;;;;4983371;28;20137;-67
2021/03/05 07:49:10;;;;;;;8.65;1.20;;;;;;;;;;4973774;28;20038;-67
2021/03/05 07:51:36;;;;;;;11.13;1.00;;;;;;;;;;4974476;28;20169;-67
2021/03/05 07:54:04;;;;;;;4.60;0.77;;;;;;;;;;4973599;28;20494;-67
2021/03/05 07:56:49;;;;;;;5.13;0.80;;;;;;;;;;4976181;28;20035;-67
2021/03/05 07:59:47;;;;;;;10.80;0.98;;;;;;;;;;4977602;28;20043;-67
2021/03/05 08:02:13;;;;;;;11.07;1.65;;;;;;;;;;4976180;28;20043;-67
2021/03/05 08:04:53;;;;;;;6.05;0.75;;;;;;;;;;4977721;28;20089;-67
2021/03/05 08:07:19;;;;;;;5.63;1.00;;;;;;;;;;4977220;28;20504;-67
2021/03/05 08:09:45;;;;;;;6.65;1.10;;;;;;;;;;4977541;28;20034;-67
2021/03/05 08:12:31;;;;;;;11.35;1.75;;;;;;;;;;4976979;28;20046;-67
2021/03/05 08:15:08;;;;;;;7.05;1.23;;;;;;;;;;4977577;28;20055;-67
2021/03/05 08:17:44;;;;;;;13.63;1.85;;;;;;;;;;4977319;28;20201;-67
2021/03/05 08:20:10;;;;;;;8.52;1.10;;;;;;;;;;4977375;28;20053;-67
2021/03/05 08:22:54;;;;;;;4.00;1.30;;;;;;;;;;4977291;28;20415;-67
2021/03/05 08:25:27;;;;;;;5.22;1.10;;;;;;;;;;4976953;28;20369;-67
2021/03/05 08:27:52;;;;;;;10.38;1.20;;;;;;;;;;4977148;28;20035;-67
2021/03/05 08:30:41;;;;;;;7.60;1.13;;;;;;;;;;4977207;28;20021;-68
2021/03/05 08:33:07;;;;;;;9.50;1.00;;;;;;;;;;4976484;28;20074;-67
2021/03/05 08:35:34;;;;;;;5.68;1.02;;;;;;;;;;4977166;28;20132;-67
2021/03/05 08:38:03;;;;;;;10.38;1.30;;;;;;;;;;4976812;28;20031;-68
2021/03/05 08:40:33;;;;;;;5.03;1.00;;;;;;;;;;4977040;28;20339;-67
2021/03/05 08:43:10;;;;;;;3.50;1.10;;;;;;;;;;5002796;28;20537;-67
2021/03/05 08:45:46;;;;;;;3.42;1.00;;;;;;;;;;5015649;28;20096;-67
2021/03/05 08:48:15;;;;;;;4.88;0.93;;;;;;;;;;5015703;28;20038;-68
2021/03/05 08:50:40;;;;;;;4.65;1.00;;;;;;;;;;5016222;28;20378;-67
2021/03/05 08:53:06;;;;;;;10.10;1.20;;;;;;;;;;5015687;28;20029;-68
2021/03/05 08:55:33;;;;;;;10.75;2.33;;;;;;;;;;5015874;28;20021;-68
2021/03/05 08:57:59;;;;;;;16.33;4.03;;;;;;;;;;5014835;28;20053;-68
2021/03/05 09:00:28;;;;;;;8.20;2.30;;;;;;;;;;5011157;28;20037;-68
2021/03/05 09:03:02;;;;;;;8.52;1.60;;;;;;;;;;5014107;28;20106;-68
2021/03/05 09:05:32;;;;;;;11.13;1.73;;;;;;;;;;5014402;28;20470;-68
2021/03/05 09:07:58;;;;;;;8.30;1.02;;;;;;;;;;5013695;28;20128;-68
2021/03/05 09:10:36;;;;;;;8.30;1.40;;;;;;;;;;5006343;28;20073;-68
2021/03/05 09:13:02;;;;;;;4.28;1.08;;;;;;;;;;4994866;28;20736;-68
2021/03/05 09:15:36;;;;;;;4.32;1.10;;;;;;;;;;4995059;28;20117;-68
2021/03/05 09:18:02;;;;;;;12.32;1.13;;;;;;;;;;4996604;28;20050;-68
2021/03/05 09:20:33;;;;;;;3.05;1.02;;;;;;;;;;5014771;28;20041;-68
2021/03/05 09:23:12;;;;;;;2.42;0.90;;;;;;;;;;5014545;28;20076;-68
2021/03/05 09:25:45;;;;;;;4.30;1.02;;;;;;;;;;5014054;28;20382;-68
2021/03/05 09:28:11;;;;;;;2.58;0.80;;;;;;;;;;5014509;28;20037;-68
2021/03/05 09:30:37;;;;;;;8.15;1.10;;;;;;;;;;5014569;28;20018;-68
2021/03/05 09:33:02;;;;;;;8.15;2.13;;;;;;;;;;4992571;28;20041;-68
2021/03/05 09:35:28;;;;;;;5.68;1.25;;;;;;;;;;4986162;28;20033;-68
2021/03/05 09:37:53;;;;;;;7.50;2.55;;;;;;;;;;5014205;28;20037;-68
2021/03/05 09:40:19;;;;;;;6.53;1.20;;;;;;;;;;5014371;28;20026;-68
2021/03/05 09:42:46;;;;;;;8.15;1.20;;;;;;;;;;5014229;28;20037;-68
2021/03/05 09:45:12;;;;;;;5.05;1.13;;;;;;;;;;5006401;28;20053;-68
2021/03/05 09:47:47;;;;;;;8.27;1.15;;;;;;;;;;4975764;28;20030;-68
2021/03/05 09:50:31;;;;;;;6.80;1.33;;;;;;;;;;4975419;28;20037;-67
2021/03/05 09:52:57;;;;;;;8.95;1.52;;;;;;;;;;4984101;28;20023;-68
2021/03/05 09:55:26;;;;;;;6.88;1.20;;;;;;;;;;4992931;28;20034;-68
2021/03/05 09:57:52;;;;;;;6.85;1.75;;;;;;;;;;4987741;28;20043;-67
2021/03/05 10:00:30;;;;;;;9.25;1.40;;;;;;;;;;4974693;28;20113;-68
2021/03/05 10:03:05;;;;;;;6.60;1.23;;;;;;;;;;4974834;28;20035;-68
2021/03/05 10:05:31;;;;;;;4.47;1.17;;;;;;;;;;4983195;28;20030;-68
2021/03/05 10:07:56;;;;;;;6.22;0.88;;;;;;;;;;4993918;28;20136;-68
2021/03/05 10:10:21;;;;;;;2.40;0.90;;;;;;;;;;5005099;28;20080;-68
2021/03/05 10:12:53;;;;;;;5.43;1.08;;;;;;;;;;5007650;28;20118;-68
2021/03/05 10:15:18;;;;;;;10.20;1.60;;;;;;;;;;4994176;28;20045;-68
2021/03/05 10:17:44;;;;;;;8.43;1.48;;;;;;;;;;4993580;28;20031;-68
2021/03/05 10:20:09;;;;;;;7.97;1.20;;;;;;;;;;4984959;28;20531;-68
2021/03/05 10:22:35;;;;;;;8.30;1.35;;;;;;;;;;4991877;28;20034;-68
2021/03/05 10:25:00;;;;;;;7.43;1.27;;;;;;;;;;4994519;28;20026;-68
2021/03/05 10:27:25;;;;;;;8.52;1.10;;;;;;;;;;4993694;28;20037;-68
2021/03/05 10:29:56;;;;;;;4.20;0.85;;;;;;;;;;4993919;28;20406;-68
2021/03/05 10:32:29;;;;;;;9.23;1.27;;;;;;;;;;4993462;28;20529;-69
2021/03/05 10:34:56;;;;;;;7.63;1.23;;;;;;;;;;4993827;28;20034;-68
2021/03/05 10:37:21;;;;;;;9.18;1.33;;;;;;;;;;4993234;28;20050;-68
2021/03/05 10:39:48;;;;;;;4.68;0.90;;;;;;;;;;4993868;28;20375;-68
2021/03/05 10:42:14;;;;;;;8.00;1.30;;;;;;;;;;4994003;28;20041;-68
2021/03/05 10:44:40;;;;;;;6.60;1.00;;;;;;;;;;4993393;28;20502;-67
2021/03/05 10:47:06;;;;;;;5.05;1.27;;;;;;;;;;4992754;28;20073;-68
2021/03/05 10:49:32;;;;;;;6.05;1.67;;;;;;;;;;4980397;28;20462;-68
2021/03/05 10:51:57;;;;;;;3.95;1.33;;;;;;;;;;5000902;28;20022;-68
2021/03/05 10:54:23;;;;;;;7.47;1.90;;;;;;;;;;5010881;28;20034;-67
2021/03/05 10:56:49;;;;;;;4.55;1.08;;;;;;;;;;5006389;28;20041;-67
2021/03/05 10:59:16;;;;;;;5.22;1.00;;;;;;;;;;4993355;28;20042;-68
2021/03/05 11:01:42;;;;;;;6.85;0.88;;;;;;;;;;5000192;28;20080;-67
2021/03/05 11:04:07;;;;;;;9.80;1.13;;;;;;;;;;5001421;28;20030;-68
2021/03/05 11:06:32;;;;;;;5.03;0.80;;;;;;;;;;4999327;28;20106;-67
2021/03/05 11:08:59;;;;;;;5.90;1.42;;;;;;;;;;5002377;28;20021;-68
2021/03/05 11:11:25;;;;;;;4.53;0.93;;;;;;;;;;5001691;28;20113;-68
2021/03/05 11:13:50;;;;;;;5.72;0.95;;;;;;;;;;5003564;28;20121;-68
2021/03/05 11:16:15;;;;;;;6.85;1.15;;;;;;;;;;4998120;28;20034;-68
2021/03/05 11:18:41;;;;;;;6.80;1.27;;;;;;;;;;4996747;28;20450;-68
2021/03/05 11:21:06;;;;;;;6.57;1.02;;;;;;;;;;4996191;28;20054;-68
2021/03/05 11:23:31;;;;;;;5.07;0.93;;;;;;;;;;4998228;28;20022;-68
2021/03/05 11:25:57;;;;;;;3.78;1.23;;;;;;;;;;5007447;28;20466;-68
2021/03/05 11:28:22;;;;;;;4.82;1.30;;;;;;;;;;5001488;28;20034;-68
2021/03/05 11:30:47;;;;;;;2.55;0.95;;;;;;;;;;5007904;28;20022;-68
2021/03/05 11:33:12;;;;;;;4.63;0.93;;;;;;;;;;5016536;28;20156;-67
2021/03/05 11:35:38;;;;;;;8.05;1.58;;;;;;;;;;5016047;28;20029;-68
2021/03/05 11:38:03;;;;;;;9.82;2.75;;;;;;;;;;5016185;28;20030;-68
2021/03/05 11:40:29;;;;;;;9.45;1.40;;;;;;;;;;5016218;28;20026;-68
2021/03/05 11:42:54;;;;;;;6.45;2.00;;;;;;;;;;5016368;28;20041;-68
2021/03/05 11:45:19;;;;;;;5.10;1.40;;;;;;;;;;5016780;28;20526;-68
2021/03/05 11:47:44;;;;;;;3.65;0.68;;;;;;;;;;5016422;28;20467;-68
2021/03/05 11:50:10;;;;;;;7.80;1.83;;;;;;;;;;5016323;28;20038;-68
2021/03/05 11:52:36;;;;;;;8.18;1.45;;;;;;;;;;4992032;28;20037;-68
2021/03/05 11:55:02;;;;;;;5.50;1.00;;;;;;;;;;4981654;28;20034;-68
2021/03/05 11:57:27;;;;;;;4.70;1.00;;;;;;;;;;4996609;28;20515;-68
2021/03/05 11:59:52;;;;;;;6.18;0.98;;;;;;;;;;4979945;28;20027;-68
2021/03/05 12:02:18;;;;;;;2.92;0.98;;;;;;;;;;4977116;28;20101;-68
2021/03/05 12:04:43;;;;;;;3.97;1.13;;;;;;;;;;4977047;28;20046;-68
2021/03/05 12:07:08;;;;;;;13.10;1.25;;;;;;;;;;4977008;28;20041;-68
2021/03/05 12:09:34;;;;;;;5.35;1.20;;;;;;;;;;4984973;28;20034;-68
2021/03/05 12:11:59;;;;;;;6.38;1.20;;;;;;;;;;5007743;28;20046;-68
2021/03/05 12:14:24;;;;;;;7.25;1.13;;;;;;;;;;5006953;28;20089;-68
2021/03/05 12:16:49;;;;;;;13.00;1.63;;;;;;;;;;5002521;28;20053;-68
2021/03/05 12:19:15;;;;;;;5.65;1.30;;;;;;;;;;5012438;28;20061;-68
2021/03/05 12:21:40;;;;;;;7.38;1.10;;;;;;;;;;4994030;28;20407;-68
2021/03/05 12:24:06;;;;;;;9.65;1.30;;;;;;;;;;4991976;28;20053;-68
2021/03/05 12:26:31;;;;;;;13.40;1.60;;;;;;;;;;4994733;28;20030;-68
2021/03/05 12:28:56;;;;;;;7.13;1.45;;;;;;;;;;4992661;28;20030;-68
2021/03/05 12:31:22;;;;;;;7.63;1.70;;;;;;;;;;4991838;28;20042;-68
2021/03/05 12:33:47;;;;;;;10.15;1.77;;;;;;;;;;5007315;28;20045;-68
2021/03/05 12:36:12;;;;;;;9.50;1.20;;;;;;;;;;4995833;28;20022;-68
2021/03/05 12:38:38;;;;;;;14.15;1.33;;;;;;;;;;5005550;28;20046;-68
2021/03/05 12:41:03;;;;;;;6.90;1.13;;;;;;;;;;4991283;28;20117;-68
2021/03/05 12:43:28;;;;;;;6.75;1.40;;;;;;;;;;4994555;28;20022;-68
2021/03/05 12:45:54;;;;;;;3.53;0.75;;;;;;;;;;4992073;28;20522;-67
2021/03/05 12:48:19;;;;;;;7.20;1.35;;;;;;;;;;5008057;28;20034;-68
2021/03/05 12:50:44;;;;;;;7.65;1.65;;;;;;;;;;4999053;28;20485;-69
2021/03/05 12:53:09;;;;;;;6.90;1.20;;;;;;;;;;4991633;28;20034;-68
2021/03/05 12:55:35;;;;;;;7.75;1.33;;;;;;;;;;5006082;28;20537;-67
2021/03/05 12:58:00;;;;;;;9.02;1.08;;;;;;;;;;4995292;28;20766;-68
2021/03/05 13:00:25;;;;;;;6.32;1.27;;;;;;;;;;5006218;28;20029;-68
2021/03/05 13:02:51;;;;;;;5.47;1.25;;;;;;;;;;5005183;28;20117;-68
2021/03/05 13:05:16;;;;;;;8.23;2.33;;;;;;;;;;5001763;28;20041;-68
2021/03/05 13:07:42;;;;;;;9.10;1.95;;;;;;;;;;4996546;28;20097;-68
2021/03/05 13:10:07;;;;;;;2.65;1.20;;;;;;;;;;5010011;28;20042;-68
2021/03/05 13:12:33;;;;;;;5.60;1.55;;;;;;;;;;5005599;28;20068;-68
2021/03/05 13:14:58;;;;;;;7.07;1.10;;;;;;;;;;4992682;28;20482;-68
2021/03/05 13:17:23;;;;;;;6.97;1.50;;;;;;;;;;4987409;28;20095;-68
2021/03/05 13:19:48;;;;;;;8.77;1.50;;;;;;;;;;5007020;28;20398;-68
2021/03/05 13:22:14;;;;;;;9.27;1.67;;;;;;;;;;5010610;28;20065;-68
2021/03/05 13:24:39;;;;;;;8.05;1.50;;;;;;;;;;5010727;28;20050;-68
2021/03/05 13:27:05;;;;;;;3.58;0.70;;;;;;;;;;5000843;28;20443;-68
2021/03/05 13:29:30;;;;;;;7.78;1.63;;;;;;;;;;5001051;28;20032;-67
2021/03/05 13:31:55;;;;;;;11.00;1.35;;;;;;;;;;4992294;28;20034;-68
2021/03/05 13:34:21;;;;;;;7.68;1.50;;;;;;;;;;4990915;28;20026;-68
2021/03/05 13:36:49;;;;;;;4.95;0.82;;;;;;;;;;4991607;28;20355;-67
2021/03/05 13:39:14;;;;;;;4.93;0.90;;;;;;;;;;4991412;28;20033;-68
2021/03/05 13:41:39;;;;;;;7.22;1.50;;;;;;;;;;4991480;28;20026;-68
2021/03/05 13:44:05;;;;;;;4.40;0.93;;;;;;;;;;4990919;28;20072;-68
2021/03/05 13:46:31;;;;;;;7.78;1.20;;;;;;;;;;4991228;28;20096;-68
2021/03/05 13:48:56;;;;;;;6.82;1.33;;;;;;;;;;5001976;28;20046;-67
2021/03/05 13:51:22;;;;;;;6.53;1.40;;;;;;;;;;4998598;28;20473;-67
2021/03/05 13:53:47;;;;;;;3.63;0.70;;;;;;;;;;5000439;28;20041;-68
2021/03/05 13:56:12;;;;;;;4.13;1.13;;;;;;;;;;5001076;28;20029;-68
2021/03/05 13:58:37;;;;;;;6.38;0.95;;;;;;;;;;4999856;28;20045;-68
2021/03/05 14:01:02;;;;;;;5.40;1.00;;;;;;;;;;5001684;28;20125;-68
2021/03/05 14:03:28;;;;;;;14.77;1.52;;;;;;;;;;5000113;28;20387;-68
2021/03/05 14:05:53;;;;;;;7.90;2.17;;;;;;;;;;5000460;28;20040;-68
2021/03/05 14:08:18;;;;;;;8.27;1.65;;;;;;;;;;4999693;28;20564;-67
2021/03/05 14:10:43;;;;;;;8.57;1.70;;;;;;;;;;5000046;28;20076;-67
2021/03/05 14:13:09;;;;;;;4.80;1.67;;;;;;;;;;5007536;28;20034;-68
2021/03/05 14:15:35;;;;;;;5.00;1.65;;;;;;;;;;5009149;28;20402;-68
2021/03/05 14:18:00;;;;;;;5.63;2.33;;;;;;;;;;5010060;28;20141;-68
2021/03/05 14:20:26;;;;;;;13.35;2.50;;;;;;;;;;5009717;28;20152;-68
2021/03/05 14:22:51;;;;;;;10.15;1.88;;;;;;;;;;5000814;28;20049;-68
2021/03/05 14:25:16;;;;;;;9.48;2.15;;;;;;;;;;4997932;28;20105;-67
2021/03/05 14:27:41;;;;;;;6.20;1.60;;;;;;;;;;5004812;28;20454;-68
2021/03/05 14:30:08;;;;;;;10.30;1.90;;;;;;;;;;4993745;28;20038;-68
2021/03/05 14:32:33;;;;;;;10.13;1.90;;;;;;;;;;5004904;28;20022;-68
2021/03/05 14:34:59;;;;;;;8.02;1.90;;;;;;;;;;5000671;28;20785;-67
2021/03/05 14:37:24;;;;;;;10.27;1.50;;;;;;;;;;4998182;28;20096;-68